sensor_id;sensor_type;location;lat;lon;timestamp;P1;durP1;ratioP1;P2;durP2;ratioP2
54881;SDS011;40775;51.448;4.742;2022-08-21T00:00:21;0.40;;;0.30;;
54881;SDS011;40775;51.448;4.742;2022-08-21T00:02:55;1.20;;;0.50;;
54881;SDS011;40775;51.448;4.742;2022-08-21T00:05:28;0.57;;;0.47;;
54881;SDS011;40775;51.448;4.742;2022-08-21T00:07:57;1.67;;;0.80;;
54881;SDS011;40775;51.448;4.742;2022-08-21T00:10:25;2.08;;;0.60;;
54881;SDS011;40775;51.448;4.742;2022-08-21T00:12:52;1.10;;;0.50;;
54881;SDS011;40775;51.448;4.742;2022-08-21T00:15:22;0.75;;;0.50;;
54881;SDS011;40775;51.448;4.742;2022-08-21T00:17:53;1.17;;;0.47;;
54881;SDS011;40775;51.448;4.742;2022-08-21T00:20:22;1.08;;;0.43;;
54881;SDS011;40775;51.448;4.742;2022-08-21T00:22:50;2.33;;;0.63;;
54881;SDS011;40775;51.448;4.742;2022-08-21T00:25:18;1.10;;;0.50;;
54881;SDS011;40775;51.448;4.742;2022-08-21T00:27:51;0.73;;;0.45;;
54881;SDS011;40775;51.448;4.742;2022-08-21T00:30:19;1.58;;;0.55;;
54881;SDS011;40775;51.448;4.742;2022-08-21T00:32:48;0.97;;;0.40;;
54881;SDS011;40775;51.448;4.742;2022-08-21T00:35:18;1.40;;;0.63;;
54881;SDS011;40775;51.448;4.742;2022-08-21T00:37:49;1.00;;;0.60;;
54881;SDS011;40775;51.448;4.742;2022-08-21T00:40:18;0.40;;;0.40;;
54881;SDS011;40775;51.448;4.742;2022-08-21T00:42:52;1.47;;;0.50;;
54881;SDS011;40775;51.448;4.742;2022-08-21T00:45:20;0.75;;;0.55;;
54881;SDS011;40775;51.448;4.742;2022-08-21T00:47:49;0.80;;;0.50;;
54881;SDS011;40775;51.448;4.742;2022-08-21T00:50:18;0.90;;;0.40;;
54881;SDS011;40775;51.448;4.742;2022-08-21T00:52:47;0.93;;;0.43;;
54881;SDS011;40775;51.448;4.742;2022-08-21T00:55:20;0.93;;;0.53;;
54881;SDS011;40775;51.448;4.742;2022-08-21T00:57:52;1.15;;;0.52;;
54881;SDS011;40775;51.448;4.742;2022-08-21T01:00:25;1.27;;;0.57;;
54881;SDS011;40775;51.448;4.742;2022-08-21T01:02:58;0.80;;;0.50;;
54881;SDS011;40775;51.448;4.742;2022-08-21T01:05:32;1.10;;;0.45;;
54881;SDS011;40775;51.448;4.742;2022-08-21T01:07:59;1.60;;;0.50;;
54881;SDS011;40775;51.448;4.742;2022-08-21T01:10:27;0.80;;;0.40;;
54881;SDS011;40775;51.448;4.742;2022-08-21T01:12:55;0.83;;;0.50;;
54881;SDS011;40775;51.448;4.742;2022-08-21T01:15:24;1.00;;;0.65;;
54881;SDS011;40775;51.448;4.742;2022-08-21T01:17:56;0.87;;;0.50;;
54881;SDS011;40775;51.448;4.742;2022-08-21T01:20:24;0.77;;;0.40;;
54881;SDS011;40775;51.448;4.742;2022-08-21T01:22:58;1.98;;;0.80;;
54881;SDS011;40775;51.448;4.742;2022-08-21T01:25:27;0.77;;;0.50;;
54881;SDS011;40775;51.448;4.742;2022-08-21T01:27:54;1.45;;;0.65;;
54881;SDS011;40775;51.448;4.742;2022-08-21T01:30:24;0.98;;;0.50;;
54881;SDS011;40775;51.448;4.742;2022-08-21T01:32:55;0.82;;;0.50;;
54881;SDS011;40775;51.448;4.742;2022-08-21T01:35:23;0.75;;;0.50;;
54881;SDS011;40775;51.448;4.742;2022-08-21T01:37:50;1.20;;;0.50;;
54881;SDS011;40775;51.448;4.742;2022-08-21T01:40:17;1.23;;;0.50;;
54881;SDS011;40775;51.448;4.742;2022-08-21T01:42:45;0.88;;;0.52;;
54881;SDS011;40775;51.448;4.742;2022-08-21T01:45:13;1.42;;;0.57;;
54881;SDS011;40775;51.448;4.742;2022-08-21T01:47:42;1.25;;;0.43;;
54881;SDS011;40775;51.448;4.742;2022-08-21T01:50:12;1.65;;;0.70;;
54881;SDS011;40775;51.448;4.742;2022-08-21T01:52:42;1.20;;;0.52;;
54881;SDS011;40775;51.448;4.742;2022-08-21T01:55:09;0.97;;;0.50;;
54881;SDS011;40775;51.448;4.742;2022-08-21T01:57:42;1.60;;;0.50;;
54881;SDS011;40775;51.448;4.742;2022-08-21T02:00:11;1.40;;;0.57;;
54881;SDS011;40775;51.448;4.742;2022-08-21T02:02:42;0.80;;;0.43;;
54881;SDS011;40775;51.448;4.742;2022-08-21T02:05:10;1.30;;;0.50;;
54881;SDS011;40775;51.448;4.742;2022-08-21T02:07:39;1.35;;;0.57;;
54881;SDS011;40775;51.448;4.742;2022-08-21T02:10:15;1.30;;;0.60;;
54881;SDS011;40775;51.448;4.742;2022-08-21T02:12:48;0.60;;;0.50;;
54881;SDS011;40775;51.448;4.742;2022-08-21T02:15:15;0.55;;;0.38;;
54881;SDS011;40775;51.448;4.742;2022-08-21T02:17:45;1.10;;;0.52;;
54881;SDS011;40775;51.448;4.742;2022-08-21T02:20:19;1.30;;;0.50;;
54881;SDS011;40775;51.448;4.742;2022-08-21T02:22:51;0.82;;;0.50;;
54881;SDS011;40775;51.448;4.742;2022-08-21T02:25:19;1.10;;;0.60;;
54881;SDS011;40775;51.448;4.742;2022-08-21T02:27:49;0.65;;;0.40;;
54881;SDS011;40775;51.448;4.742;2022-08-21T02:30:19;0.50;;;0.35;;
54881;SDS011;40775;51.448;4.742;2022-08-21T02:32:55;1.53;;;0.60;;
54881;SDS011;40775;51.448;4.742;2022-08-21T02:35:23;0.90;;;0.52;;
54881;SDS011;40775;51.448;4.742;2022-08-21T02:37:54;0.70;;;0.40;;
54881;SDS011;40775;51.448;4.742;2022-08-21T02:40:27;1.00;;;0.63;;
54881;SDS011;40775;51.448;4.742;2022-08-21T02:42:58;1.42;;;0.55;;
54881;SDS011;40775;51.448;4.742;2022-08-21T02:45:27;1.87;;;0.50;;
54881;SDS011;40775;51.448;4.742;2022-08-21T02:48:00;0.77;;;0.40;;
54881;SDS011;40775;51.448;4.742;2022-08-21T02:50:36;1.10;;;0.52;;
54881;SDS011;40775;51.448;4.742;2022-08-21T02:53:10;1.20;;;0.50;;
54881;SDS011;40775;51.448;4.742;2022-08-21T02:55:44;1.48;;;0.60;;
54881;SDS011;40775;51.448;4.742;2022-08-21T02:58:14;1.17;;;0.63;;
54881;SDS011;40775;51.448;4.742;2022-08-21T03:00:50;1.60;;;0.53;;
54881;SDS011;40775;51.448;4.742;2022-08-21T03:03:18;1.05;;;0.52;;
54881;SDS011;40775;51.448;4.742;2022-08-21T03:05:47;1.50;;;0.50;;
54881;SDS011;40775;51.448;4.742;2022-08-21T03:08:14;1.07;;;0.67;;
54881;SDS011;40775;51.448;4.742;2022-08-21T03:10:44;2.00;;;0.60;;
54881;SDS011;40775;51.448;4.742;2022-08-21T03:13:14;0.90;;;0.50;;
54881;SDS011;40775;51.448;4.742;2022-08-21T03:15:42;1.00;;;0.40;;
54881;SDS011;40775;51.448;4.742;2022-08-21T03:18:10;1.27;;;0.50;;
54881;SDS011;40775;51.448;4.742;2022-08-21T03:20:38;0.77;;;0.50;;
54881;SDS011;40775;51.448;4.742;2022-08-21T03:23:08;1.35;;;0.60;;
54881;SDS011;40775;51.448;4.742;2022-08-21T03:25:39;1.65;;;0.50;;
54881;SDS011;40775;51.448;4.742;2022-08-21T03:28:09;1.20;;;0.50;;
54881;SDS011;40775;51.448;4.742;2022-08-21T03:30:40;1.15;;;0.50;;
54881;SDS011;40775;51.448;4.742;2022-08-21T03:33:12;0.70;;;0.40;;
54881;SDS011;40775;51.448;4.742;2022-08-21T03:35:44;0.68;;;0.32;;
54881;SDS011;40775;51.448;4.742;2022-08-21T03:38:18;0.70;;;0.47;;
54881;SDS011;40775;51.448;4.742;2022-08-21T03:40:51;0.60;;;0.40;;
54881;SDS011;40775;51.448;4.742;2022-08-21T03:43:19;1.02;;;0.70;;
54881;SDS011;40775;51.448;4.742;2022-08-21T03:45:46;0.53;;;0.40;;
54881;SDS011;40775;51.448;4.742;2022-08-21T03:48:13;1.13;;;0.50;;
54881;SDS011;40775;51.448;4.742;2022-08-21T03:50:41;0.70;;;0.40;;
54881;SDS011;40775;51.448;4.742;2022-08-21T03:53:11;1.20;;;0.50;;
54881;SDS011;40775;51.448;4.742;2022-08-21T03:55:43;1.35;;;0.50;;
54881;SDS011;40775;51.448;4.742;2022-08-21T03:58:15;1.52;;;0.50;;
54881;SDS011;40775;51.448;4.742;2022-08-21T04:00:46;1.60;;;0.60;;
54881;SDS011;40775;51.448;4.742;2022-08-21T04:03:17;1.80;;;0.70;;
54881;SDS011;40775;51.448;4.742;2022-08-21T04:05:44;0.75;;;0.40;;
54881;SDS011;40775;51.448;4.742;2022-08-21T04:08:14;2.08;;;0.50;;
54881;SDS011;40775;51.448;4.742;2022-08-21T04:10:46;1.85;;;0.57;;
54881;SDS011;40775;51.448;4.742;2022-08-21T04:13:17;1.50;;;0.57;;
54881;SDS011;40775;51.448;4.742;2022-08-21T04:15:44;0.70;;;0.60;;
54881;SDS011;40775;51.448;4.742;2022-08-21T04:18:11;0.88;;;0.50;;
54881;SDS011;40775;51.448;4.742;2022-08-21T04:20:39;0.77;;;0.45;;
54881;SDS011;40775;51.448;4.742;2022-08-21T04:23:15;1.95;;;0.65;;
54881;SDS011;40775;51.448;4.742;2022-08-21T04:25:50;1.30;;;0.60;;
54881;SDS011;40775;51.448;4.742;2022-08-21T04:28:18;1.70;;;0.80;;
54881;SDS011;40775;51.448;4.742;2022-08-21T04:30:48;1.20;;;0.50;;
54881;SDS011;40775;51.448;4.742;2022-08-21T04:33:18;1.27;;;0.50;;
54881;SDS011;40775;51.448;4.742;2022-08-21T04:35:47;0.90;;;0.40;;
54881;SDS011;40775;51.448;4.742;2022-08-21T04:38:16;1.55;;;0.63;;
54881;SDS011;40775;51.448;4.742;2022-08-21T04:40:44;0.65;;;0.40;;
54881;SDS011;40775;51.448;4.742;2022-08-21T04:43:12;1.25;;;0.55;;
54881;SDS011;40775;51.448;4.742;2022-08-21T04:45:40;1.60;;;0.53;;
54881;SDS011;40775;51.448;4.742;2022-08-21T04:48:11;0.85;;;0.50;;
54881;SDS011;40775;51.448;4.742;2022-08-21T04:53:31;0.90;;;0.40;;
54881;SDS011;40775;51.448;4.742;2022-08-21T04:56:05;1.38;;;0.55;;
54881;SDS011;40775;51.448;4.742;2022-08-21T04:58:45;0.52;;;0.43;;
54881;SDS011;40775;51.448;4.742;2022-08-21T05:01:15;0.82;;;0.50;;
54881;SDS011;40775;51.448;4.742;2022-08-21T05:03:47;0.80;;;0.50;;
54881;SDS011;40775;51.448;4.742;2022-08-21T05:06:18;0.60;;;0.40;;
54881;SDS011;40775;51.448;4.742;2022-08-21T05:08:47;1.02;;;0.60;;
54881;SDS011;40775;51.448;4.742;2022-08-21T05:11:27;0.67;;;0.50;;
54881;SDS011;40775;51.448;4.742;2022-08-21T05:13:56;2.17;;;0.73;;
54881;SDS011;40775;51.448;4.742;2022-08-21T05:16:23;1.25;;;0.52;;
54881;SDS011;40775;51.448;4.742;2022-08-21T05:19:02;0.80;;;0.55;;
54881;SDS011;40775;51.448;4.742;2022-08-21T05:21:31;0.77;;;0.43;;
54881;SDS011;40775;51.448;4.742;2022-08-21T05:24:03;0.70;;;0.50;;
54881;SDS011;40775;51.448;4.742;2022-08-21T05:26:31;1.27;;;0.60;;
54881;SDS011;40775;51.448;4.742;2022-08-21T05:29:10;1.00;;;0.43;;
54881;SDS011;40775;51.448;4.742;2022-08-21T05:31:38;1.35;;;0.40;;
54881;SDS011;40775;51.448;4.742;2022-08-21T05:34:05;1.20;;;0.60;;
54881;SDS011;40775;51.448;4.742;2022-08-21T05:36:32;1.05;;;0.50;;
54881;SDS011;40775;51.448;4.742;2022-08-21T05:38:59;0.82;;;0.55;;
54881;SDS011;40775;51.448;4.742;2022-08-21T05:41:26;1.65;;;0.70;;
54881;SDS011;40775;51.448;4.742;2022-08-21T05:43:53;1.30;;;0.50;;
54881;SDS011;40775;51.448;4.742;2022-08-21T05:46:20;0.73;;;0.50;;
54881;SDS011;40775;51.448;4.742;2022-08-21T05:48:47;1.10;;;0.50;;
54881;SDS011;40775;51.448;4.742;2022-08-21T05:51:15;1.23;;;0.65;;
54881;SDS011;40775;51.448;4.742;2022-08-21T05:53:43;1.50;;;0.57;;
54881;SDS011;40775;51.448;4.742;2022-08-21T05:56:11;1.13;;;0.52;;
54881;SDS011;40775;51.448;4.742;2022-08-21T05:58:39;1.23;;;0.60;;
54881;SDS011;40775;51.448;4.742;2022-08-21T06:01:07;1.93;;;0.57;;
54881;SDS011;40775;51.448;4.742;2022-08-21T06:03:36;0.93;;;0.40;;
54881;SDS011;40775;51.448;4.742;2022-08-21T06:06:06;0.57;;;0.30;;
54881;SDS011;40775;51.448;4.742;2022-08-21T06:08:33;1.10;;;0.40;;
54881;SDS011;40775;51.448;4.742;2022-08-21T06:11:02;1.40;;;0.45;;
54881;SDS011;40775;51.448;4.742;2022-08-21T06:13:30;0.68;;;0.40;;
54881;SDS011;40775;51.448;4.742;2022-08-21T06:16:03;0.82;;;0.25;;
54881;SDS011;40775;51.448;4.742;2022-08-21T06:18:41;0.82;;;0.55;;
54881;SDS011;40775;51.448;4.742;2022-08-21T06:21:09;1.02;;;0.47;;
54881;SDS011;40775;51.448;4.742;2022-08-21T06:23:37;0.77;;;0.43;;
54881;SDS011;40775;51.448;4.742;2022-08-21T06:26:05;1.15;;;0.50;;
54881;SDS011;40775;51.448;4.742;2022-08-21T06:28:34;0.70;;;0.30;;
54881;SDS011;40775;51.448;4.742;2022-08-21T06:31:13;1.35;;;0.50;;
54881;SDS011;40775;51.448;4.742;2022-08-21T06:33:44;1.00;;;0.47;;
54881;SDS011;40775;51.448;4.742;2022-08-21T06:36:11;0.85;;;0.40;;
54881;SDS011;40775;51.448;4.742;2022-08-21T06:38:39;0.77;;;0.35;;
54881;SDS011;40775;51.448;4.742;2022-08-21T06:41:06;1.35;;;0.40;;
54881;SDS011;40775;51.448;4.742;2022-08-21T06:43:35;0.88;;;0.52;;
54881;SDS011;40775;51.448;4.742;2022-08-21T06:46:05;0.80;;;0.50;;
54881;SDS011;40775;51.448;4.742;2022-08-21T06:48:34;0.65;;;0.40;;
54881;SDS011;40775;51.448;4.742;2022-08-21T06:51:01;1.25;;;0.52;;
54881;SDS011;40775;51.448;4.742;2022-08-21T06:53:28;0.93;;;0.50;;
54881;SDS011;40775;51.448;4.742;2022-08-21T06:55:55;1.25;;;0.50;;
54881;SDS011;40775;51.448;4.742;2022-08-21T06:58:22;0.90;;;0.30;;
54881;SDS011;40775;51.448;4.742;2022-08-21T07:00:50;0.60;;;0.40;;
54881;SDS011;40775;51.448;4.742;2022-08-21T07:03:19;0.80;;;0.50;;
54881;SDS011;40775;51.448;4.742;2022-08-21T07:05:58;1.23;;;0.60;;
54881;SDS011;40775;51.448;4.742;2022-08-21T07:08:26;1.23;;;0.60;;
54881;SDS011;40775;51.448;4.742;2022-08-21T07:10:55;0.80;;;0.40;;
54881;SDS011;40775;51.448;4.742;2022-08-21T07:13:24;0.70;;;0.40;;
54881;SDS011;40775;51.448;4.742;2022-08-21T07:15:51;0.85;;;0.55;;
54881;SDS011;40775;51.448;4.742;2022-08-21T07:18:18;2.30;;;0.60;;
54881;SDS011;40775;51.448;4.742;2022-08-21T07:20:46;1.10;;;0.50;;
54881;SDS011;40775;51.448;4.742;2022-08-21T07:23:24;1.00;;;0.30;;
54881;SDS011;40775;51.448;4.742;2022-08-21T07:25:58;1.15;;;0.43;;
54881;SDS011;40775;51.448;4.742;2022-08-21T07:28:29;0.60;;;0.40;;
54881;SDS011;40775;51.448;4.742;2022-08-21T07:30:58;0.57;;;0.40;;
54881;SDS011;40775;51.448;4.742;2022-08-21T07:33:27;0.80;;;0.40;;
54881;SDS011;40775;51.448;4.742;2022-08-21T07:35:57;1.27;;;0.68;;
54881;SDS011;40775;51.448;4.742;2022-08-21T07:38:25;1.15;;;0.60;;
54881;SDS011;40775;51.448;4.742;2022-08-21T07:40:54;1.20;;;0.57;;
54881;SDS011;40775;51.448;4.742;2022-08-21T07:43:25;0.77;;;0.30;;
54881;SDS011;40775;51.448;4.742;2022-08-21T07:45:52;0.95;;;0.50;;
54881;SDS011;40775;51.448;4.742;2022-08-21T07:48:21;0.52;;;0.45;;
54881;SDS011;40775;51.448;4.742;2022-08-21T07:50:48;1.13;;;0.40;;
54881;SDS011;40775;51.448;4.742;2022-08-21T07:53:16;1.55;;;0.60;;
54881;SDS011;40775;51.448;4.742;2022-08-21T07:55:43;0.97;;;0.50;;
54881;SDS011;40775;51.448;4.742;2022-08-21T07:58:10;1.10;;;0.50;;
54881;SDS011;40775;51.448;4.742;2022-08-21T08:00:37;0.80;;;0.40;;
54881;SDS011;40775;51.448;4.742;2022-08-21T08:03:06;1.13;;;0.57;;
54881;SDS011;40775;51.448;4.742;2022-08-21T08:05:33;2.17;;;0.65;;
54881;SDS011;40775;51.448;4.742;2022-08-21T08:08:03;0.40;;;0.40;;
54881;SDS011;40775;51.448;4.742;2022-08-21T08:10:30;0.90;;;0.50;;
54881;SDS011;40775;51.448;4.742;2022-08-21T08:12:57;1.05;;;0.50;;
54881;SDS011;40775;51.448;4.742;2022-08-21T08:15:26;1.00;;;0.40;;
54881;SDS011;40775;51.448;4.742;2022-08-21T08:17:55;0.70;;;0.50;;
54881;SDS011;40775;51.448;4.742;2022-08-21T08:20:23;0.80;;;0.50;;
54881;SDS011;40775;51.448;4.742;2022-08-21T08:22:53;4.15;;;1.90;;
54881;SDS011;40775;51.448;4.742;2022-08-21T08:25:21;4.70;;;1.70;;
54881;SDS011;40775;51.448;4.742;2022-08-21T08:27:49;3.85;;;1.20;;
54881;SDS011;40775;51.448;4.742;2022-08-21T08:30:16;3.60;;;1.27;;
54881;SDS011;40775;51.448;4.742;2022-08-21T08:32:46;2.35;;;1.08;;
54881;SDS011;40775;51.448;4.742;2022-08-21T08:35:14;2.07;;;1.07;;
54881;SDS011;40775;51.448;4.742;2022-08-21T08:37:41;5.05;;;1.52;;
54881;SDS011;40775;51.448;4.742;2022-08-21T08:41:02;7.53;;;2.13;;
54881;SDS011;40775;51.448;4.742;2022-08-21T08:43:30;2.10;;;0.60;;
54881;SDS011;40775;51.448;4.742;2022-08-21T08:46:01;1.08;;;0.47;;
54881;SDS011;40775;51.448;4.742;2022-08-21T08:48:41;1.43;;;0.50;;
54881;SDS011;40775;51.448;4.742;2022-08-21T08:52:02;0.47;;;0.30;;
54881;SDS011;40775;51.448;4.742;2022-08-21T08:55:13;1.45;;;0.70;;
54881;SDS011;40775;51.448;4.742;2022-08-21T08:57:52;1.50;;;0.80;;
54881;SDS011;40775;51.448;4.742;2022-08-21T09:00:21;0.60;;;0.40;;
54881;SDS011;40775;51.448;4.742;2022-08-21T09:02:54;1.00;;;0.50;;
54881;SDS011;40775;51.448;4.742;2022-08-21T09:05:27;1.08;;;0.55;;
54881;SDS011;40775;51.448;4.742;2022-08-21T09:08:20;1.25;;;0.60;;
54881;SDS011;40775;51.448;4.742;2022-08-21T09:11:44;5.32;;;2.30;;
54881;SDS011;40775;51.448;4.742;2022-08-21T09:18:04;4.40;;;1.20;;
54881;SDS011;40775;51.448;4.742;2022-08-21T09:21:14;1.35;;;0.50;;
54881;SDS011;40775;51.448;4.742;2022-08-21T09:24:22;1.50;;;0.55;;
54881;SDS011;40775;51.448;4.742;2022-08-21T09:27:12;2.30;;;0.65;;
54881;SDS011;40775;51.448;4.742;2022-08-21T09:29:44;0.65;;;0.47;;
54881;SDS011;40775;51.448;4.742;2022-08-21T09:32:15;4.97;;;2.03;;
54881;SDS011;40775;51.448;4.742;2022-08-21T09:45:39;2.53;;;0.52;;
54881;SDS011;40775;51.448;4.742;2022-08-21T09:48:15;6.85;;;2.28;;
54881;SDS011;40775;51.448;4.742;2022-08-21T09:50:52;1.00;;;0.68;;
54881;SDS011;40775;51.448;4.742;2022-08-21T09:53:30;4.30;;;1.48;;
54881;SDS011;40775;51.448;4.742;2022-08-21T09:56:14;4.45;;;1.35;;
54881;SDS011;40775;51.448;4.742;2022-08-21T09:59:13;1.77;;;0.60;;
54881;SDS011;40775;51.448;4.742;2022-08-21T10:01:51;1.40;;;0.40;;
54881;SDS011;40775;51.448;4.742;2022-08-21T10:04:28;1.00;;;0.40;;
54881;SDS011;40775;51.448;4.742;2022-08-21T10:07:08;4.78;;;1.67;;
54881;SDS011;40775;51.448;4.742;2022-08-21T10:09:39;5.45;;;2.00;;
54881;SDS011;40775;51.448;4.742;2022-08-21T10:14:57;4.25;;;1.67;;
54881;SDS011;40775;51.448;4.742;2022-08-21T10:20:47;1.83;;;0.70;;
54881;SDS011;40775;51.448;4.742;2022-08-21T10:30:48;3.43;;;1.00;;
54881;SDS011;40775;51.448;4.742;2022-08-21T10:36:13;2.00;;;1.10;;
54881;SDS011;40775;51.448;4.742;2022-08-21T10:47:06;1.38;;;0.50;;
54881;SDS011;40775;51.448;4.742;2022-08-21T10:56:21;1.60;;;0.50;;
54881;SDS011;40775;51.448;4.742;2022-08-21T10:58:45;5.07;;;1.65;;
54881;SDS011;40775;51.448;4.742;2022-08-21T11:01:54;3.90;;;1.40;;
54881;SDS011;40775;51.448;4.742;2022-08-21T11:04:31;3.35;;;1.00;;
54881;SDS011;40775;51.448;4.742;2022-08-21T11:07:33;4.47;;;1.43;;
54881;SDS011;40775;51.448;4.742;2022-08-21T11:10:29;4.65;;;1.30;;
54881;SDS011;40775;51.448;4.742;2022-08-21T11:13:27;5.07;;;1.10;;
54881;SDS011;40775;51.448;4.742;2022-08-21T11:16:21;2.72;;;1.10;;
54881;SDS011;40775;51.448;4.742;2022-08-21T11:22:13;5.50;;;1.77;;
54881;SDS011;40775;51.448;4.742;2022-08-21T11:25:13;4.18;;;1.25;;
54881;SDS011;40775;51.448;4.742;2022-08-21T11:31:02;2.42;;;0.77;;
54881;SDS011;40775;51.448;4.742;2022-08-21T11:39:06;0.63;;;0.40;;
54881;SDS011;40775;51.448;4.742;2022-08-21T11:41:51;5.00;;;1.20;;
54881;SDS011;40775;51.448;4.742;2022-08-21T11:44:41;3.78;;;1.00;;
54881;SDS011;40775;51.448;4.742;2022-08-21T11:47:21;3.40;;;1.05;;
54881;SDS011;40775;51.448;4.742;2022-08-21T11:50:21;6.65;;;1.75;;
54881;SDS011;40775;51.448;4.742;2022-08-21T11:55:47;2.63;;;1.33;;
54881;SDS011;40775;51.448;4.742;2022-08-21T11:58:38;3.20;;;1.70;;
54881;SDS011;40775;51.448;4.742;2022-08-21T12:01:21;5.82;;;1.50;;
54881;SDS011;40775;51.448;4.742;2022-08-21T12:04:15;3.78;;;1.40;;
54881;SDS011;40775;51.448;4.742;2022-08-21T12:06:54;1.95;;;1.25;;
54881;SDS011;40775;51.448;4.742;2022-08-21T12:14:49;4.40;;;1.30;;
54881;SDS011;40775;51.448;4.742;2022-08-21T12:17:35;5.53;;;1.63;;
54881;SDS011;40775;51.448;4.742;2022-08-21T12:22:52;4.45;;;2.00;;
54881;SDS011;40775;51.448;4.742;2022-08-21T12:29:15;4.22;;;1.30;;
54881;SDS011;40775;51.448;4.742;2022-08-21T12:38:02;5.40;;;1.80;;
54881;SDS011;40775;51.448;4.742;2022-08-21T12:43:28;7.88;;;1.92;;
54881;SDS011;40775;51.448;4.742;2022-08-21T12:46:14;7.00;;;1.67;;
54881;SDS011;40775;51.448;4.742;2022-08-21T12:55:10;7.73;;;1.83;;
54881;SDS011;40775;51.448;4.742;2022-08-21T12:57:42;4.10;;;1.60;;
54881;SDS011;40775;51.448;4.742;2022-08-21T13:00:10;3.95;;;1.13;;
54881;SDS011;40775;51.448;4.742;2022-08-21T13:02:45;3.22;;;1.10;;
54881;SDS011;40775;51.448;4.742;2022-08-21T13:05:16;3.70;;;1.47;;
54881;SDS011;40775;51.448;4.742;2022-08-21T13:08:04;3.47;;;1.17;;
54881;SDS011;40775;51.448;4.742;2022-08-21T13:10:34;4.70;;;1.92;;
54881;SDS011;40775;51.448;4.742;2022-08-21T13:13:04;5.22;;;1.48;;
54881;SDS011;40775;51.448;4.742;2022-08-21T13:15:38;5.60;;;1.10;;
54881;SDS011;40775;51.448;4.742;2022-08-21T13:18:23;4.93;;;1.58;;
54881;SDS011;40775;51.448;4.742;2022-08-21T13:21:02;3.88;;;1.30;;
54881;SDS011;40775;51.448;4.742;2022-08-21T13:23:53;7.22;;;1.67;;
54881;SDS011;40775;51.448;4.742;2022-08-21T13:26:21;2.85;;;1.42;;
54881;SDS011;40775;51.448;4.742;2022-08-21T13:28:48;4.32;;;1.60;;
54881;SDS011;40775;51.448;4.742;2022-08-21T13:31:18;3.58;;;1.27;;
54881;SDS011;40775;51.448;4.742;2022-08-21T13:33:53;1.17;;;0.50;;
54881;SDS011;40775;51.448;4.742;2022-08-21T13:36:25;1.08;;;0.50;;
54881;SDS011;40775;51.448;4.742;2022-08-21T13:38:58;0.82;;;0.57;;
54881;SDS011;40775;51.448;4.742;2022-08-21T13:41:27;2.58;;;0.98;;
54881;SDS011;40775;51.448;4.742;2022-08-21T13:44:05;4.55;;;1.23;;
54881;SDS011;40775;51.448;4.742;2022-08-21T13:46:46;3.20;;;1.00;;
54881;SDS011;40775;51.448;4.742;2022-08-21T13:49:16;4.35;;;1.38;;
54881;SDS011;40775;51.448;4.742;2022-08-21T13:51:55;4.00;;;1.25;;
54881;SDS011;40775;51.448;4.742;2022-08-21T13:54:43;3.83;;;1.13;;
54881;SDS011;40775;51.448;4.742;2022-08-21T13:57:23;3.00;;;1.50;;
54881;SDS011;40775;51.448;4.742;2022-08-21T14:00:18;4.88;;;2.00;;
54881;SDS011;40775;51.448;4.742;2022-08-21T14:03:00;6.03;;;2.03;;
54881;SDS011;40775;51.448;4.742;2022-08-21T14:05:38;4.17;;;1.27;;
54881;SDS011;40775;51.448;4.742;2022-08-21T14:08:14;4.15;;;1.50;;
54881;SDS011;40775;51.448;4.742;2022-08-21T14:10:55;6.47;;;1.63;;
54881;SDS011;40775;51.448;4.742;2022-08-21T14:16:22;4.77;;;1.57;;
54881;SDS011;40775;51.448;4.742;2022-08-21T14:19:10;5.57;;;1.83;;
54881;SDS011;40775;51.448;4.742;2022-08-21T14:21:46;3.13;;;1.35;;
54881;SDS011;40775;51.448;4.742;2022-08-21T14:26:57;3.10;;;1.15;;
54881;SDS011;40775;51.448;4.742;2022-08-21T14:29:33;4.43;;;1.33;;
54881;SDS011;40775;51.448;4.742;2022-08-21T14:32:15;2.85;;;1.35;;
54881;SDS011;40775;51.448;4.742;2022-08-21T14:34:50;2.33;;;1.10;;
54881;SDS011;40775;51.448;4.742;2022-08-21T14:37:20;3.13;;;1.38;;
54881;SDS011;40775;51.448;4.742;2022-08-21T14:39:47;2.15;;;1.00;;
54881;SDS011;40775;51.448;4.742;2022-08-21T14:42:15;3.65;;;1.50;;
54881;SDS011;40775;51.448;4.742;2022-08-21T14:44:42;3.30;;;1.23;;
54881;SDS011;40775;51.448;4.742;2022-08-21T14:47:09;3.53;;;1.48;;
54881;SDS011;40775;51.448;4.742;2022-08-21T14:49:36;4.65;;;1.10;;
54881;SDS011;40775;51.448;4.742;2022-08-21T14:52:04;4.95;;;1.58;;
54881;SDS011;40775;51.448;4.742;2022-08-21T14:54:31;5.05;;;1.60;;
54881;SDS011;40775;51.448;4.742;2022-08-21T14:57:00;2.88;;;1.13;;
54881;SDS011;40775;51.448;4.742;2022-08-21T14:59:32;4.15;;;1.10;;
54881;SDS011;40775;51.448;4.742;2022-08-21T15:02:01;3.85;;;1.20;;
54881;SDS011;40775;51.448;4.742;2022-08-21T15:04:30;4.65;;;1.42;;
54881;SDS011;40775;51.448;4.742;2022-08-21T15:06:59;2.90;;;1.38;;
54881;SDS011;40775;51.448;4.742;2022-08-21T15:09:27;4.85;;;1.75;;
54881;SDS011;40775;51.448;4.742;2022-08-21T15:11:55;3.05;;;0.90;;
54881;SDS011;40775;51.448;4.742;2022-08-21T15:14:27;4.72;;;1.48;;
54881;SDS011;40775;51.448;4.742;2022-08-21T15:16:58;4.35;;;1.35;;
54881;SDS011;40775;51.448;4.742;2022-08-21T15:19:25;4.25;;;1.80;;
54881;SDS011;40775;51.448;4.742;2022-08-21T15:21:53;6.28;;;1.73;;
54881;SDS011;40775;51.448;4.742;2022-08-21T15:24:20;3.30;;;1.20;;
54881;SDS011;40775;51.448;4.742;2022-08-21T15:26:47;4.18;;;1.80;;
54881;SDS011;40775;51.448;4.742;2022-08-21T15:29:15;3.27;;;1.37;;
54881;SDS011;40775;51.448;4.742;2022-08-21T15:31:52;4.13;;;1.40;;
54881;SDS011;40775;51.448;4.742;2022-08-21T15:34:23;3.22;;;1.38;;
54881;SDS011;40775;51.448;4.742;2022-08-21T15:36:55;5.10;;;1.40;;
54881;SDS011;40775;51.448;4.742;2022-08-21T15:39:24;2.03;;;1.02;;
54881;SDS011;40775;51.448;4.742;2022-08-21T15:41:57;4.37;;;1.20;;
54881;SDS011;40775;51.448;4.742;2022-08-21T15:44:36;3.72;;;1.42;;
54881;SDS011;40775;51.448;4.742;2022-08-21T15:47:10;5.03;;;1.67;;
54881;SDS011;40775;51.448;4.742;2022-08-21T15:49:44;2.40;;;1.20;;
54881;SDS011;40775;51.448;4.742;2022-08-21T15:52:15;4.30;;;1.23;;
54881;SDS011;40775;51.448;4.742;2022-08-21T15:54:44;3.55;;;1.08;;
54881;SDS011;40775;51.448;4.742;2022-08-21T15:57:13;5.15;;;1.58;;
54881;SDS011;40775;51.448;4.742;2022-08-21T15:59:47;5.65;;;1.77;;
54881;SDS011;40775;51.448;4.742;2022-08-21T16:02:28;3.53;;;1.63;;
54881;SDS011;40775;51.448;4.742;2022-08-21T16:04:57;6.50;;;1.43;;
54881;SDS011;40775;51.448;4.742;2022-08-21T16:07:25;2.90;;;1.17;;
54881;SDS011;40775;51.448;4.742;2022-08-21T16:09:52;5.38;;;1.77;;
54881;SDS011;40775;51.448;4.742;2022-08-21T16:12:24;3.60;;;1.13;;
54881;SDS011;40775;51.448;4.742;2022-08-21T16:14:54;3.55;;;1.08;;
54881;SDS011;40775;51.448;4.742;2022-08-21T16:17:23;1.08;;;0.70;;
54881;SDS011;40775;51.448;4.742;2022-08-21T16:19:58;1.88;;;1.10;;
54881;SDS011;40775;51.448;4.742;2022-08-21T16:22:30;1.50;;;0.50;;
54881;SDS011;40775;51.448;4.742;2022-08-21T16:25:10;1.77;;;0.95;;
54881;SDS011;40775;51.448;4.742;2022-08-21T16:27:38;3.33;;;1.13;;
54881;SDS011;40775;51.448;4.742;2022-08-21T16:30:09;4.80;;;1.60;;
54881;SDS011;40775;51.448;4.742;2022-08-21T16:32:37;5.22;;;1.73;;
54881;SDS011;40775;51.448;4.742;2022-08-21T16:35:04;4.90;;;1.52;;
54881;SDS011;40775;51.448;4.742;2022-08-21T16:37:31;4.30;;;1.63;;
54881;SDS011;40775;51.448;4.742;2022-08-21T16:39:58;5.60;;;1.60;;
54881;SDS011;40775;51.448;4.742;2022-08-21T16:42:25;3.88;;;1.15;;
54881;SDS011;40775;51.448;4.742;2022-08-21T16:44:53;5.75;;;1.80;;
54881;SDS011;40775;51.448;4.742;2022-08-21T16:47:21;2.65;;;0.95;;
54881;SDS011;40775;51.448;4.742;2022-08-21T16:49:52;3.38;;;1.30;;
54881;SDS011;40775;51.448;4.742;2022-08-21T16:52:20;2.78;;;1.10;;
54881;SDS011;40775;51.448;4.742;2022-08-21T16:54:47;3.10;;;1.10;;
54881;SDS011;40775;51.448;4.742;2022-08-21T16:57:14;3.17;;;1.08;;